sensor_id;sensor_type;location;lat;lon;timestamp;pressure;altitude;pressure_sealevel;temperature;humidity
19086;BME280;9675;51.538;6.728;2023-06-14T00:01:56;101029.19;;;26.07;33.61
19086;BME280;9675;51.538;6.728;2023-06-14T00:04:24;101028.38;;;26.02;33.55
19086;BME280;9675;51.538;6.728;2023-06-14T00:06:52;101024.91;;;25.98;33.55
19086;BME280;9675;51.538;6.728;2023-06-14T00:09:19;101028.47;;;25.94;33.49
19086;BME280;9675;51.538;6.728;2023-06-14T00:11:46;101027.63;;;25.89;33.60
19086;BME280;9675;51.538;6.728;2023-06-14T00:14:13;101035.56;;;25.86;33.85
19086;BME280;9675;51.538;6.728;2023-06-14T00:16:41;101034.72;;;25.83;33.98
19086;BME280;9675;51.538;6.728;2023-06-14T00:19:09;101034.78;;;25.76;33.84
19086;BME280;9675;51.538;6.728;2023-06-14T00:21:38;101036.59;;;25.71;34.10
19086;BME280;9675;51.538;6.728;2023-06-14T00:24:05;101034.88;;;25.67;34.17
19086;BME280;9675;51.538;6.728;2023-06-14T00:26:32;101043.72;;;25.63;33.88
19086;BME280;9675;51.538;6.728;2023-06-14T00:28:59;101047.28;;;25.59;34.16
19086;BME280;9675;51.538;6.728;2023-06-14T00:31:27;101050.81;;;25.55;34.14
19086;BME280;9675;51.538;6.728;2023-06-14T00:33:54;101047.28;;;25.52;34.24
19086;BME280;9675;51.538;6.728;2023-06-14T00:36:21;101048.22;;;25.48;34.32
19086;BME280;9675;51.538;6.728;2023-06-14T00:38:49;101052.66;;;25.43;34.49
19086;BME280;9675;51.538;6.728;2023-06-14T00:41:16;101050.06;;;25.36;34.24
19086;BME280;9675;51.538;6.728;2023-06-14T00:43:43;101057.13;;;25.33;34.62
19086;BME280;9675;51.538;6.728;2023-06-14T00:46:10;101058.91;;;25.28;34.52
19086;BME280;9675;51.538;6.728;2023-06-14T00:48:38;101049.25;;;25.24;34.66
19086;BME280;9675;51.538;6.728;2023-06-14T00:51:06;101058.09;;;25.20;34.82
19086;BME280;9675;51.538;6.728;2023-06-14T00:53:34;101054.59;;;25.16;34.64
19086;BME280;9675;51.538;6.728;2023-06-14T00:56:03;101060.78;;;25.12;34.94
19086;BME280;9675;51.538;6.728;2023-06-14T00:58:31;101061.69;;;25.07;34.76
19086;BME280;9675;51.538;6.728;2023-06-14T01:00:59;101058.22;;;25.02;34.67
19086;BME280;9675;51.538;6.728;2023-06-14T01:03:26;101065.25;;;25.00;34.72
19086;BME280;9675;51.538;6.728;2023-06-14T01:06:05;101058.25;;;24.95;35.04
19086;BME280;9675;51.538;6.728;2023-06-14T01:08:46;101068.78;;;24.92;34.95
19086;BME280;9675;51.538;6.728;2023-06-14T01:11:22;101071.44;;;24.89;35.16
19086;BME280;9675;51.538;6.728;2023-06-14T01:13:53;101072.31;;;24.84;35.24
19086;BME280;9675;51.538;6.728;2023-06-14T01:16:23;101073.22;;;24.81;35.22
19086;BME280;9675;51.538;6.728;2023-06-14T01:18:52;101072.38;;;24.76;35.43
19086;BME280;9675;51.538;6.728;2023-06-14T01:21:23;101061.00;;;24.71;35.28
19086;BME280;9675;51.538;6.728;2023-06-14T01:23:52;101061.84;;;24.67;35.54
19086;BME280;9675;51.538;6.728;2023-06-14T01:26:20;101068.91;;;24.65;35.57
19086;BME280;9675;51.538;6.728;2023-06-14T01:28:49;101058.41;;;24.59;35.21
19086;BME280;9675;51.538;6.728;2023-06-14T01:31:20;101058.38;;;24.56;35.68
19086;BME280;9675;51.538;6.728;2023-06-14T01:33:49;101059.28;;;24.52;35.80
19086;BME280;9675;51.538;6.728;2023-06-14T01:36:18;101065.47;;;24.48;35.78
19086;BME280;9675;51.538;6.728;2023-06-14T01:38:46;101058.47;;;24.44;35.44
19086;BME280;9675;51.538;6.728;2023-06-14T01:41:18;101065.50;;;24.39;35.53
19086;BME280;9675;51.538;6.728;2023-06-14T01:43:49;101052.31;;;24.36;35.68
19086;BME280;9675;51.538;6.728;2023-06-14T01:46:19;101056.72;;;24.32;35.48
19086;BME280;9675;51.538;6.728;2023-06-14T01:48:46;101060.25;;;24.27;35.71
19086;BME280;9675;51.538;6.728;2023-06-14T01:51:13;101058.53;;;24.24;36.09
19086;BME280;9675;51.538;6.728;2023-06-14T01:53:40;101056.78;;;24.19;35.91
19086;BME280;9675;51.538;6.728;2023-06-14T01:56:07;101062.88;;;24.14;35.88
19086;BME280;9675;51.538;6.728;2023-06-14T01:58:35;101056.75;;;24.09;35.92
19086;BME280;9675;51.538;6.728;2023-06-14T02:01:03;101057.66;;;24.07;36.25
19086;BME280;9675;51.538;6.728;2023-06-14T02:03:31;101060.28;;;24.02;36.08
19086;BME280;9675;51.538;6.728;2023-06-14T02:05:58;101055.03;;;23.99;35.87
19086;BME280;9675;51.538;6.728;2023-06-14T02:08:25;101057.66;;;23.95;36.09
19086;BME280;9675;51.538;6.728;2023-06-14T02:10:52;101055.06;;;23.92;36.15
19086;BME280;9675;51.538;6.728;2023-06-14T02:13:19;101061.19;;;23.88;36.23
19086;BME280;9675;51.538;6.728;2023-06-14T02:15:47;101055.03;;;23.84;36.22
19086;BME280;9675;51.538;6.728;2023-06-14T02:18:16;101060.31;;;23.81;36.34
19086;BME280;9675;51.538;6.728;2023-06-14T02:20:43;101058.59;;;23.77;36.49
19086;BME280;9675;51.538;6.728;2023-06-14T02:23:10;101064.69;;;23.75;36.17
19086;BME280;9675;51.538;6.728;2023-06-14T02:25:37;101062.97;;;23.72;36.46
19086;BME280;9675;51.538;6.728;2023-06-14T02:28:05;101063.81;;;23.68;36.50
19086;BME280;9675;51.538;6.728;2023-06-14T02:30:32;101070.84;;;23.66;36.44
19086;BME280;9675;51.538;6.728;2023-06-14T02:33:00;101062.97;;;23.61;36.76
19086;BME280;9675;51.538;6.728;2023-06-14T02:35:30;101063.84;;;23.57;36.71
19086;BME280;9675;51.538;6.728;2023-06-14T02:37:57;101072.59;;;23.55;36.58
19086;BME280;9675;51.538;6.728;2023-06-14T02:40:24;101076.13;;;23.51;36.73
19086;BME280;9675;51.538;6.728;2023-06-14T02:42:51;101085.75;;;23.49;37.07
19086;BME280;9675;51.538;6.728;2023-06-14T02:45:18;101076.94;;;23.44;36.96
19086;BME280;9675;51.538;6.728;2023-06-14T02:47:46;101085.72;;;23.41;36.96
19086;BME280;9675;51.538;6.728;2023-06-14T02:50:15;101077.84;;;23.37;36.76
19086;BME280;9675;51.538;6.728;2023-06-14T02:52:42;101082.19;;;23.35;36.96
19086;BME280;9675;51.538;6.728;2023-06-14T02:55:10;101079.56;;;23.30;36.94
19086;BME280;9675;51.538;6.728;2023-06-14T02:57:37;101093.56;;;23.27;37.29
19086;BME280;9675;51.538;6.728;2023-06-14T03:00:06;101091.81;;;23.23;36.70
19086;BME280;9675;51.538;6.728;2023-06-14T03:02:35;101087.41;;;23.18;37.21
19086;BME280;9675;51.538;6.728;2023-06-14T03:05:02;101092.66;;;23.16;37.20
19086;BME280;9675;51.538;6.728;2023-06-14T03:07:31;101095.28;;;23.13;37.06
19086;BME280;9675;51.538;6.728;2023-06-14T03:10:00;101104.03;;;23.09;37.38
19086;BME280;9675;51.538;6.728;2023-06-14T03:12:27;101108.41;;;23.06;37.28
19086;BME280;9675;51.538;6.728;2023-06-14T03:14:54;101108.41;;;23.03;37.28
19086;BME280;9675;51.538;6.728;2023-06-14T03:17:22;101113.66;;;23.00;37.59
19086;BME280;9675;51.538;6.728;2023-06-14T03:19:49;101110.13;;;22.96;37.34
19086;BME280;9675;51.538;6.728;2023-06-14T03:22:16;101114.50;;;22.93;37.53
19086;BME280;9675;51.538;6.728;2023-06-14T03:24:45;101116.25;;;22.89;37.37
19086;BME280;9675;51.538;6.728;2023-06-14T03:27:13;101119.72;;;22.86;37.52
19086;BME280;9675;51.538;6.728;2023-06-14T03:29:40;101114.47;;;22.82;37.77
19086;BME280;9675;51.538;6.728;2023-06-14T03:32:08;101120.59;;;22.79;37.76
19086;BME280;9675;51.538;6.728;2023-06-14T03:34:35;101119.69;;;22.76;37.77
19086;BME280;9675;51.538;6.728;2023-06-14T03:37:04;101119.66;;;22.71;37.98
19086;BME280;9675;51.538;6.728;2023-06-14T03:39:31;101117.88;;;22.69;38.06
19086;BME280;9675;51.538;6.728;2023-06-14T03:42:00;101119.59;;;22.65;38.01
19086;BME280;9675;51.538;6.728;2023-06-14T03:44:27;101124.81;;;22.61;37.91
19086;BME280;9675;51.538;6.728;2023-06-14T03:46:54;101130.94;;;22.58;37.97
19086;BME280;9675;51.538;6.728;2023-06-14T03:49:21;101134.44;;;22.56;37.94
19086;BME280;9675;51.538;6.728;2023-06-14T03:51:48;101133.53;;;22.51;38.11
19086;BME280;9675;51.538;6.728;2023-06-14T03:54:16;101132.66;;;22.49;38.23
19086;BME280;9675;51.538;6.728;2023-06-14T03:56:43;101135.25;;;22.45;38.26
19086;BME280;9675;51.538;6.728;2023-06-14T03:59:12;101143.06;;;22.39;38.66
19086;BME280;9675;51.538;6.728;2023-06-14T04:01:40;101143.94;;;22.32;38.72
19086;BME280;9675;51.538;6.728;2023-06-14T04:04:11;101148.28;;;22.30;38.60
19086;BME280;9675;51.538;6.728;2023-06-14T04:06:38;101150.88;;;22.27;38.63
19086;BME280;9675;51.538;6.728;2023-06-14T04:09:06;101151.75;;;22.26;38.80
19086;BME280;9675;51.538;6.728;2023-06-14T04:11:33;101155.25;;;22.25;38.79
19086;BME280;9675;51.538;6.728;2023-06-14T04:14:02;101161.31;;;22.23;38.86
19086;BME280;9675;51.538;6.728;2023-06-14T04:16:31;101164.81;;;22.20;39.07
19086;BME280;9675;51.538;6.728;2023-06-14T04:18:58;101163.94;;;22.17;38.86
19086;BME280;9675;51.538;6.728;2023-06-14T04:21:25;101165.66;;;22.15;38.90
19086;BME280;9675;51.538;6.728;2023-06-14T04:23:53;101165.63;;;22.13;38.95
19086;BME280;9675;51.538;6.728;2023-06-14T04:26:22;101163.03;;;22.12;38.93
19086;BME280;9675;51.538;6.728;2023-06-14T04:28:55;101164.72;;;22.08;39.24
19086;BME280;9675;51.538;6.728;2023-06-14T04:31:22;101169.94;;;22.05;39.55
19086;BME280;9675;51.538;6.728;2023-06-14T04:33:52;101166.38;;;21.97;39.17
19086;BME280;9675;51.538;6.728;2023-06-14T04:36:19;101168.16;;;21.96;39.80
19086;BME280;9675;51.538;6.728;2023-06-14T04:38:46;101169.81;;;21.93;39.38
19086;BME280;9675;51.538;6.728;2023-06-14T04:41:14;101172.38;;;21.87;39.42
19086;BME280;9675;51.538;6.728;2023-06-14T04:43:41;101177.63;;;21.85;39.46
19086;BME280;9675;51.538;6.728;2023-06-14T04:46:09;101174.97;;;21.84;39.82
19086;BME280;9675;51.538;6.728;2023-06-14T04:48:37;101185.47;;;21.81;40.01
19086;BME280;9675;51.538;6.728;2023-06-14T04:51:06;101172.31;;;21.79;39.80
19086;BME280;9675;51.538;6.728;2023-06-14T04:53:34;101185.41;;;21.78;40.22
19086;BME280;9675;51.538;6.728;2023-06-14T04:56:01;101175.78;;;21.75;40.00
19086;BME280;9675;51.538;6.728;2023-06-14T04:58:30;101180.13;;;21.73;40.13
19086;BME280;9675;51.538;6.728;2023-06-14T05:00:57;101187.09;;;21.71;40.14
19086;BME280;9675;51.538;6.728;2023-06-14T05:03:25;101189.72;;;21.70;40.18
19086;BME280;9675;51.538;6.728;2023-06-14T05:05:53;101193.16;;;21.66;40.26
19086;BME280;9675;51.538;6.728;2023-06-14T05:08:22;101185.25;;;21.62;40.43
19086;BME280;9675;51.538;6.728;2023-06-14T05:10:50;101199.22;;;21.61;40.24
19086;BME280;9675;51.538;6.728;2023-06-14T05:13:17;101199.19;;;21.58;40.58
19086;BME280;9675;51.538;6.728;2023-06-14T05:15:44;101197.44;;;21.57;40.21
19086;BME280;9675;51.538;6.728;2023-06-14T05:18:12;101202.66;;;21.54;40.51
19086;BME280;9675;51.538;6.728;2023-06-14T05:20:40;101205.28;;;21.54;40.82
19086;BME280;9675;51.538;6.728;2023-06-14T05:23:09;101207.00;;;21.52;40.87
19086;BME280;9675;51.538;6.728;2023-06-14T05:25:42;101206.09;;;21.50;40.64
19086;BME280;9675;51.538;6.728;2023-06-14T05:28:09;101207.84;;;21.48;40.83
19086;BME280;9675;51.538;6.728;2023-06-14T05:30:38;101206.06;;;21.47;40.89
19086;BME280;9675;51.538;6.728;2023-06-14T05:33:05;101213.91;;;21.44;41.06
19086;BME280;9675;51.538;6.728;2023-06-14T05:35:32;101218.25;;;21.42;41.09
19086;BME280;9675;51.538;6.728;2023-06-14T05:38:00;101207.75;;;21.42;41.38
19086;BME280;9675;51.538;6.728;2023-06-14T05:40:27;101207.72;;;21.41;41.26
19086;BME280;9675;51.538;6.728;2023-06-14T05:42:55;101214.72;;;21.40;41.05
19086;BME280;9675;51.538;6.728;2023-06-14T05:45:22;101210.38;;;21.42;41.53
19086;BME280;9675;51.538;6.728;2023-06-14T05:47:49;101206.00;;;21.41;41.46
19086;BME280;9675;51.538;6.728;2023-06-14T05:50:17;101215.59;;;21.41;41.24
19086;BME280;9675;51.538;6.728;2023-06-14T05:52:44;101217.34;;;21.42;41.56
19086;BME280;9675;51.538;6.728;2023-06-14T05:55:11;101218.25;;;21.42;41.47
19086;BME280;9675;51.538;6.728;2023-06-14T05:57:38;101228.72;;;21.42;41.58
19086;BME280;9675;51.538;6.728;2023-06-14T06:00:09;101228.72;;;21.42;41.45
19086;BME280;9675;51.538;6.728;2023-06-14T06:02:40;101227.88;;;21.43;41.91
19086;BME280;9675;51.538;6.728;2023-06-14T06:05:08;101231.38;;;21.45;41.85
19086;BME280;9675;51.538;6.728;2023-06-14T06:07:36;101229.63;;;21.46;41.89
19086;BME280;9675;51.538;6.728;2023-06-14T06:10:04;101228.78;;;21.47;41.94
19086;BME280;9675;51.538;6.728;2023-06-14T06:12:32;101235.81;;;21.49;41.89
19086;BME280;9675;51.538;6.728;2023-06-14T06:14:59;101234.03;;;21.48;42.08
19086;BME280;9675;51.538;6.728;2023-06-14T06:17:28;101234.94;;;21.52;41.86
19086;BME280;9675;51.538;6.728;2023-06-14T06:19:55;101242.84;;;21.53;42.23
19086;BME280;9675;51.538;6.728;2023-06-14T06:22:22;101236.72;;;21.53;42.03
19086;BME280;9675;51.538;6.728;2023-06-14T06:24:49;101249.00;;;21.58;42.35
19086;BME280;9675;51.538;6.728;2023-06-14T06:27:16;101242.91;;;21.59;42.05
19086;BME280;9675;51.538;6.728;2023-06-14T06:29:44;101250.75;;;21.61;41.98
19086;BME280;9675;51.538;6.728;2023-06-14T06:32:11;101253.41;;;21.62;41.99
19086;BME280;9675;51.538;6.728;2023-06-14T06:34:40;101252.59;;;21.65;41.77
19086;BME280;9675;51.538;6.728;2023-06-14T06:37:07;101261.31;;;21.67;41.75
19086;BME280;9675;51.538;6.728;2023-06-14T06:39:34;101263.97;;;21.69;41.76
19086;BME280;9675;51.538;6.728;2023-06-14T06:42:01;101258.75;;;21.72;42.05
19086;BME280;9675;51.538;6.728;2023-06-14T06:44:28;101254.41;;;21.74;41.81
19086;BME280;9675;51.538;6.728;2023-06-14T06:46:56;101265.81;;;21.77;41.60
19086;BME280;9675;51.538;6.728;2023-06-14T06:49:24;101262.34;;;21.80;41.50
19086;BME280;9675;51.538;6.728;2023-06-14T06:52:02;101278.97;;;21.83;41.76
19086;BME280;9675;51.538;6.728;2023-06-14T06:54:31;101275.53;;;21.86;41.52
19086;BME280;9675;51.538;6.728;2023-06-14T06:56:58;101278.16;;;21.89;41.59
19086;BME280;9675;51.538;6.728;2023-06-14T06:59:26;101275.59;;;21.93;41.54
19086;BME280;9675;51.538;6.728;2023-06-14T07:01:53;101280.06;;;21.99;41.30
19086;BME280;9675;51.538;6.728;2023-06-14T07:04:20;101285.34;;;22.02;41.06
19086;BME280;9675;51.538;6.728;2023-06-14T07:06:47;101275.78;;;22.07;40.83
19086;BME280;9675;51.538;6.728;2023-06-14T07:09:15;101279.31;;;22.12;41.13
19086;BME280;9675;51.538;6.728;2023-06-14T07:11:44;101287.22;;;22.15;41.04
19086;BME280;9675;51.538;6.728;2023-06-14T07:14:11;101285.53;;;22.22;41.06
19086;BME280;9675;51.538;6.728;2023-06-14T07:16:38;101288.22;;;22.28;41.16
19086;BME280;9675;51.538;6.728;2023-06-14T07:19:06;101281.25;;;22.33;41.07
19086;BME280;9675;51.538;6.728;2023-06-14T07:21:34;101286.56;;;22.37;41.17
19086;BME280;9675;51.538;6.728;2023-06-14T07:24:04;101292.72;;;22.45;40.98
19086;BME280;9675;51.538;6.728;2023-06-14T07:26:33;101297.16;;;22.53;40.84
19086;BME280;9675;51.538;6.728;2023-06-14T07:29:01;101298.09;;;22.58;40.52
19086;BME280;9675;51.538;6.728;2023-06-14T07:31:28;101299.88;;;22.63;40.49
19086;BME280;9675;51.538;6.728;2023-06-14T07:33:55;101291.19;;;22.69;40.31
19086;BME280;9675;51.538;6.728;2023-06-14T07:36:22;101283.34;;;22.73;40.33
19086;BME280;9675;51.538;6.728;2023-06-14T07:38:49;101290.38;;;22.80;39.97
19086;BME280;9675;51.538;6.728;2023-06-14T07:41:17;101291.38;;;22.90;40.00
19086;BME280;9675;51.538;6.728;2023-06-14T07:43:45;101287.00;;;22.97;39.81
19086;BME280;9675;51.538;6.728;2023-06-14T07:46:12;101293.19;;;23.06;39.82
19086;BME280;9675;51.538;6.728;2023-06-14T07:48:40;101292.34;;;23.13;39.81
19086;BME280;9675;51.538;6.728;2023-06-14T07:51:07;101296.78;;;23.22;39.71
19086;BME280;9675;51.538;6.728;2023-06-14T07:53:34;101288.06;;;23.26;39.57
19086;BME280;9675;51.538;6.728;2023-06-14T07:56:01;101295.09;;;23.32;39.54
19086;BME280;9675;51.538;6.728;2023-06-14T07:58:28;101287.19;;;23.33;39.76
19086;BME280;9675;51.538;6.728;2023-06-14T08:00:56;101297.75;;;23.42;39.36
19086;BME280;9675;51.538;6.728;2023-06-14T08:03:23;101303.97;;;23.50;39.19
19086;BME280;9675;51.538;6.728;2023-06-14T08:05:51;101299.59;;;23.55;39.11
19086;BME280;9675;51.538;6.728;2023-06-14T08:08:18;101304.91;;;23.66;38.79
19086;BME280;9675;51.538;6.728;2023-06-14T08:10:45;101301.41;;;23.75;39.11
19086;BME280;9675;51.538;6.728;2023-06-14T08:13:12;101309.34;;;23.85;38.92
19086;BME280;9675;51.538;6.728;2023-06-14T08:15:39;101305.84;;;23.92;38.76
19086;BME280;9675;51.538;6.728;2023-06-14T08:18:07;101305.88;;;23.98;38.70
19086;BME280;9675;51.538;6.728;2023-06-14T08:20:34;101304.13;;;24.06;38.54
19086;BME280;9675;51.538;6.728;2023-06-14T08:23:03;101305.88;;;24.15;38.91
19086;BME280;9675;51.538;6.728;2023-06-14T08:25:30;101301.56;;;24.22;38.35
19086;BME280;9675;51.538;6.728;2023-06-14T08:27:58;101311.22;;;24.29;38.41
19086;BME280;9675;51.538;6.728;2023-06-14T08:30:25;101303.31;;;24.33;38.48
19086;BME280;9675;51.538;6.728;2023-06-14T08:32:52;101313.84;;;24.41;38.62
19086;BME280;9675;51.538;6.728;2023-06-14T08:35:22;101309.47;;;24.49;38.20
19086;BME280;9675;51.538;6.728;2023-06-14T08:37:49;101307.72;;;24.54;37.63
19086;BME280;9675;51.538;6.728;2023-06-14T08:40:22;101298.94;;;24.61;37.36
19086;BME280;9675;51.538;6.728;2023-06-14T08:42:52;101298.94;;;24.70;37.34
19086;BME280;9675;51.538;6.728;2023-06-14T08:45:19;101299.78;;;24.78;37.11
19086;BME280;9675;51.538;6.728;2023-06-14T08:47:48;101300.66;;;24.85;37.03
19086;BME280;9675;51.538;6.728;2023-06-14T08:50:21;101298.91;;;24.94;36.91
19086;BME280;9675;51.538;6.728;2023-06-14T08:52:55;101299.78;;;25.04;36.75
19086;BME280;9675;51.538;6.728;2023-06-14T08:55:23;101298.91;;;25.13;36.89
19086;BME280;9675;51.538;6.728;2023-06-14T08:57:55;101296.22;;;25.19;36.63
19086;BME280;9675;51.538;6.728;2023-06-14T09:00:24;101297.97;;;25.26;36.68
19086;BME280;9675;51.538;6.728;2023-06-14T09:02:52;101300.59;;;25.33;36.79
19086;BME280;9675;51.538;6.728;2023-06-14T09:05:25;101309.31;;;25.45;36.46
19086;BME280;9675;51.538;6.728;2023-06-14T09:07:52;101297.00;;;25.54;36.50
19086;BME280;9675;51.538;6.728;2023-06-14T09:10:21;101299.59;;;25.63;36.43
19086;BME280;9675;51.538;6.728;2023-06-14T09:12:49;101311.88;;;25.70;36.31
19086;BME280;9675;51.538;6.728;2023-06-14T09:15:16;101317.13;;;25.78;36.08
19086;BME280;9675;51.538;6.728;2023-06-14T09:17:43;101316.22;;;25.84;35.73
19086;BME280;9675;51.538;6.728;2023-06-14T09:20:10;101305.59;;;25.91;35.63
19086;BME280;9675;51.538;6.728;2023-06-14T09:22:40;101302.03;;;25.97;35.19
19086;BME280;9675;51.538;6.728;2023-06-14T09:25:08;101312.59;;;26.00;35.35
19086;BME280;9675;51.538;6.728;2023-06-14T09:27:38;101316.91;;;26.11;35.21
19086;BME280;9675;51.538;6.728;2023-06-14T09:30:10;101314.34;;;25.98;34.46
19086;BME280;9675;51.538;6.728;2023-06-14T09:32:38;101312.69;;;25.85;34.60
19086;BME280;9675;51.538;6.728;2023-06-14T09:35:07;101313.53;;;25.90;34.56
19086;BME280;9675;51.538;6.728;2023-06-14T09:37:35;101314.38;;;25.99;34.27
19086;BME280;9675;51.538;6.728;2023-06-14T09:40:06;101312.53;;;26.09;34.47
19086;BME280;9675;51.538;6.728;2023-06-14T09:42:34;101320.38;;;26.22;34.10
19086;BME280;9675;51.538;6.728;2023-06-14T09:45:03;101315.91;;;26.35;34.12
19086;BME280;9675;51.538;6.728;2023-06-14T09:47:31;101305.25;;;26.47;33.71
19086;BME280;9675;51.538;6.728;2023-06-14T09:49:58;101320.97;;;26.62;33.87
19086;BME280;9675;51.538;6.728;2023-06-14T09:52:27;101320.84;;;26.78;33.61
19086;BME280;9675;51.538;6.728;2023-06-14T09:54:55;101319.88;;;26.88;33.59
19086;BME280;9675;51.538;6.728;2023-06-14T09:57:27;101326.88;;;26.93;33.09
19086;BME280;9675;51.538;6.728;2023-06-14T09:59:57;101328.56;;;27.00;32.89
19086;BME280;9675;51.538;6.728;2023-06-14T10:02:34;101314.44;;;27.01;32.22
19086;BME280;9675;51.538;6.728;2023-06-14T10:05:05;101328.50;;;27.05;32.43
19086;BME280;9675;51.538;6.728;2023-06-14T10:07:39;101330.22;;;27.12;32.20
19086;BME280;9675;51.538;6.728;2023-06-14T10:10:08;101328.38;;;27.20;32.00
19086;BME280;9675;51.538;6.728;2023-06-14T10:12:37;101332.75;;;27.21;32.21
19086;BME280;9675;51.538;6.728;2023-06-14T10:15:07;101336.25;;;27.25;31.82
19086;BME280;9675;51.538;6.728;2023-06-14T10:17:43;101323.75;;;27.37;32.23
19086;BME280;9675;51.538;6.728;2023-06-14T10:20:27;101321.84;;;27.52;31.57
19086;BME280;9675;51.538;6.728;2023-06-14T10:23:03;101319.06;;;27.62;31.65
19086;BME280;9675;51.538;6.728;2023-06-14T10:25:33;101328.75;;;27.65;31.37
19086;BME280;9675;51.538;6.728;2023-06-14T10:28:16;101316.28;;;27.73;30.94
19086;BME280;9675;51.538;6.728;2023-06-14T10:31:05;101325.97;;;27.75;31.09
19086;BME280;9675;51.538;6.728;2023-06-14T10:33:33;101311.63;;;27.88;30.52
19086;BME280;9675;51.538;6.728;2023-06-14T10:36:26;101317.59;;;28.04;30.59
19086;BME280;9675;51.538;6.728;2023-06-14T10:39:07;101309.50;;;28.16;30.69
19086;BME280;9675;51.538;6.728;2023-06-14T10:41:37;101305.81;;;28.28;30.10
19086;BME280;9675;51.538;6.728;2023-06-14T10:44:50;101319.78;;;28.38;30.68
19086;BME280;9675;51.538;6.728;2023-06-14T10:47:24;101310.78;;;28.46;29.93
19086;BME280;9675;51.538;6.728;2023-06-14T10:49:54;101308.78;;;28.60;29.95
19086;BME280;9675;51.538;6.728;2023-06-14T10:52:24;101306.81;;;28.75;30.32
19086;BME280;9675;51.538;6.728;2023-06-14T10:55:08;101311.88;;;28.87;30.21
19086;BME280;9675;51.538;6.728;2023-06-14T10:57:42;101320.59;;;28.93;30.23
19086;BME280;9675;51.538;6.728;2023-06-14T11:00:14;101303.00;;;28.91;29.82
19086;BME280;9675;51.538;6.728;2023-06-14T11:06:13;101302.81;;;29.00;29.74
19086;BME280;9675;51.538;6.728;2023-06-14T11:12:15;101299.75;;;29.20;29.24
19086;BME280;9675;51.538;6.728;2023-06-14T11:14:46;101308.50;;;29.25;29.40
19086;BME280;9675;51.538;6.728;2023-06-14T11:17:15;101303.03;;;29.34;29.40
19086;BME280;9675;51.538;6.728;2023-06-14T11:19:43;101304.66;;;29.41;29.15
19086;BME280;9675;51.538;6.728;2023-06-14T11:22:10;101304.50;;;29.48;28.59
19086;BME280;9675;51.538;6.728;2023-06-14T11:24:40;101304.34;;;29.56;28.61
19086;BME280;9675;51.538;6.728;2023-06-14T11:27:07;101311.28;;;29.63;28.99
19086;BME280;9675;51.538;6.728;2023-06-14T11:29:34;101294.25;;;29.73;28.93
19086;BME280;9675;51.538;6.728;2023-06-14T11:32:02;101297.56;;;29.83;28.63
19086;BME280;9675;51.538;6.728;2023-06-14T11:34:30;101303.50;;;29.95;28.56
19086;BME280;9675;51.538;6.728;2023-06-14T11:36:57;101299.78;;;30.03;28.62
19086;BME280;9675;51.538;6.728;2023-06-14T11:39:25;101296.28;;;30.01;28.32
19086;BME280;9675;51.538;6.728;2023-06-14T11:41:53;101285.59;;;30.04;28.40
19086;BME280;9675;51.538;6.728;2023-06-14T11:44:21;101303.13;;;30.11;28.49
19086;BME280;9675;51.538;6.728;2023-06-14T11:46:48;101294.13;;;30.18;28.32
19086;BME280;9675;51.538;6.728;2023-06-14T11:49:16;101290.31;;;30.28;28.32
19086;BME280;9675;51.538;6.728;2023-06-14T11:51:45;101298.91;;;30.39;28.59
19086;BME280;9675;51.538;6.728;2023-06-14T11:54:13;101297.00;;;30.44;28.34
19086;BME280;9675;51.538;6.728;2023-06-14T11:56:40;101302.28;;;30.47;28.38
19086;BME280;9675;51.538;6.728;2023-06-14T11:59:07;101307.41;;;30.55;28.56
19086;BME280;9675;51.538;6.728;2023-06-14T12:01:37;101306.38;;;30.60;28.43
19086;BME280;9675;51.538;6.728;2023-06-14T12:04:05;101307.03;;;30.68;28.59
19086;BME280;9675;51.538;6.728;2023-06-14T12:06:32;101306.88;;;30.74;28.01
19086;BME280;9675;51.538;6.728;2023-06-14T12:09:05;101303.16;;;30.81;28.26
19086;BME280;9675;51.538;6.728;2023-06-14T12:11:38;101295.94;;;30.87;28.17
19086;BME280;9675;51.538;6.728;2023-06-14T12:14:07;101296.53;;;30.98;27.95
19086;BME280;9675;51.538;6.728;2023-06-14T12:16:38;101302.53;;;31.06;28.03
19086;BME280;9675;51.538;6.728;2023-06-14T12:19:11;101293.53;;;31.10;27.87
19086;BME280;9675;51.538;6.728;2023-06-14T12:21:39;101283.75;;;31.10;27.74
19086;BME280;9675;51.538;6.728;2023-06-14T12:24:09;101293.31;;;31.19;27.99
19086;BME280;9675;51.538;6.728;2023-06-14T12:26:39;101277.22;;;31.22;28.06
19086;BME280;9675;51.538;6.728;2023-06-14T12:29:07;101284.97;;;31.30;27.94
19086;BME280;9675;51.538;6.728;2023-06-14T12:31:35;101288.41;;;31.35;27.78
19086;BME280;9675;51.538;6.728;2023-06-14T12:34:02;101289.25;;;31.35;27.63
19086;BME280;9675;51.538;6.728;2023-06-14T12:36:29;101297.25;;;31.35;27.43
19086;BME280;9675;51.538;6.728;2023-06-14T12:38:58;101283.75;;;31.41;27.16
19086;BME280;9675;51.538;6.728;2023-06-14T12:41:26;101289.75;;;31.49;27.32
19086;BME280;9675;51.538;6.728;2023-06-14T12:43:53;101293.06;;;31.56;27.57
19086;BME280;9675;51.538;6.728;2023-06-14T12:46:21;101293.91;;;31.59;27.64
19086;BME280;9675;51.538;6.728;2023-06-14T12:48:48;101301.91;;;31.59;27.13
19086;BME280;9675;51.538;6.728;2023-06-14T12:51:16;101308.75;;;31.67;27.12
19086;BME280;9675;51.538;6.728;2023-06-14T12:53:43;101296.91;;;31.77;27.30
19086;BME280;9675;51.538;6.728;2023-06-14T12:56:10;101287.78;;;31.85;27.29
19086;BME280;9675;51.538;6.728;2023-06-14T12:58:38;101291.09;;;31.92;26.92
19086;BME280;9675;51.538;6.728;2023-06-14T13:01:05;101299.94;;;31.94;26.53
19086;BME280;9675;51.538;6.728;2023-06-14T13:03:32;101305.22;;;31.95;26.67
19086;BME280;9675;51.538;6.728;2023-06-14T13:06:00;101298.88;;;31.99;26.67
19086;BME280;9675;51.538;6.728;2023-06-14T13:08:27;101293.50;;;32.01;26.40
19086;BME280;9675;51.538;6.728;2023-06-14T13:10:54;101297.66;;;32.10;27.13
19086;BME280;9675;51.538;6.728;2023-06-14T13:13:21;101287.66;;;32.18;26.33
19086;BME280;9675;51.538;6.728;2023-06-14T13:15:50;101291.25;;;32.17;26.49